Time;durP1;ratioP1;P1;durP2;ratioP2;P2;SDS_P1;SDS_P2;PMS_P1;PMS_P2;Temp;Humidity;BMP_temperature;BMP_pressure;BME280_temperature;BME280_humidity;BME280_pressure;Samples;Min_cycle;Max_cycle;Signal;HPM_P1;HPM_P2
2021/03/04 00:02:22;;;;;;;85.83;31.17;;;;;;;;;;5025219;28;20195;-69
2021/03/04 00:04:48;;;;;;;90.70;32.80;;;;;;;;;;5015293;28;20240;-69
2021/03/04 00:07:13;;;;;;;89.70;31.83;;;;;;;;;;5026637;28;20194;-70
2021/03/04 00:09:38;;;;;;;94.33;34.43;;;;;;;;;;5017627;28;20869;-69
2021/03/04 00:12:04;;;;;;;89.97;31.77;;;;;;;;;;5025111;28;20492;-68
2021/03/04 00:14:29;;;;;;;94.13;32.60;;;;;;;;;;5013978;28;20200;-69
2021/03/04 00:16:55;;;;;;;87.33;33.37;;;;;;;;;;5025936;28;20657;-69
2021/03/04 00:19:22;;;;;;;86.93;32.67;;;;;;;;;;5016362;28;20217;-68
2021/03/04 00:21:48;;;;;;;88.00;32.27;;;;;;;;;;5021241;28;20192;-68
2021/03/04 00:24:14;;;;;;;80.97;30.00;;;;;;;;;;5025744;28;20193;-69
2021/03/04 00:26:39;;;;;;;85.87;30.50;;;;;;;;;;5013877;28;20653;-69
2021/03/04 00:29:05;;;;;;;84.27;31.50;;;;;;;;;;5027186;28;20632;-69
2021/03/04 00:31:31;;;;;;;84.17;29.77;;;;;;;;;;5016806;28;20274;-69
2021/03/04 00:33:56;;;;;;;82.13;30.60;;;;;;;;;;5025154;28;20193;-69
2021/03/04 00:36:21;;;;;;;80.03;30.10;;;;;;;;;;5014806;28;20208;-69
2021/03/04 00:38:46;;;;;;;74.17;28.70;;;;;;;;;;5022154;28;20588;-69
2021/03/04 00:41:12;;;;;;;79.83;28.93;;;;;;;;;;5017878;28;20208;-69
2021/03/04 00:43:37;;;;;;;80.30;29.07;;;;;;;;;;5024226;28;20225;-69
2021/03/04 00:46:03;;;;;;;79.33;29.67;;;;;;;;;;5016765;28;20296;-69
2021/03/04 00:48:28;;;;;;;77.90;30.27;;;;;;;;;;5025400;28;20193;-69
2021/03/04 00:50:54;;;;;;;78.80;28.70;;;;;;;;;;5023706;28;20276;-69
2021/03/04 00:53:20;;;;;;;79.03;30.43;;;;;;;;;;5015545;28;20229;-68
2021/03/04 00:55:45;;;;;;;89.00;31.07;;;;;;;;;;5024819;28;20463;-70
2021/03/04 00:58:11;;;;;;;87.13;29.63;;;;;;;;;;5016342;28;20865;-68
2021/03/04 01:00:36;;;;;;;79.97;29.67;;;;;;;;;;5023787;28;20763;-68
2021/03/04 01:03:02;;;;;;;91.93;31.20;;;;;;;;;;5016182;28;20194;-68
2021/03/04 01:05:27;;;;;;;88.77;30.20;;;;;;;;;;5023824;28;20296;-69
2021/03/04 01:07:52;;;;;;;92.60;33.27;;;;;;;;;;5014958;28;20190;-68
2021/03/04 01:10:30;;;;;;;100.87;32.80;;;;;;;;;;5025871;28;20197;-69
2021/03/04 01:12:55;;;;;;;93.03;33.17;;;;;;;;;;5017964;28;20320;-69
2021/03/04 01:15:21;;;;;;;93.10;32.47;;;;;;;;;;5023280;28;20637;-68
2021/03/04 01:17:48;;;;;;;95.03;31.87;;;;;;;;;;5017166;28;20205;-70
2021/03/04 01:20:15;;;;;;;99.97;33.93;;;;;;;;;;5024409;28;20201;-68
2021/03/04 01:22:41;;;;;;;98.03;31.73;;;;;;;;;;5021718;28;20483;-68
2021/03/04 01:25:08;;;;;;;104.93;33.73;;;;;;;;;;5019853;28;20768;-68
2021/03/04 01:27:33;;;;;;;105.47;31.73;;;;;;;;;;5023873;28;20219;-70
2021/03/04 01:29:59;;;;;;;91.80;30.90;;;;;;;;;;5014198;28;20202;-68
2021/03/04 01:32:24;;;;;;;92.53;31.50;;;;;;;;;;5025675;28;20178;-69
2021/03/04 01:34:50;;;;;;;98.83;31.30;;;;;;;;;;5016421;28;21004;-69
2021/03/04 01:37:15;;;;;;;90.77;32.23;;;;;;;;;;5025251;28;20969;-69
2021/03/04 01:39:40;;;;;;;88.40;31.43;;;;;;;;;;5013433;28;20653;-69
2021/03/04 01:42:06;;;;;;;100.60;30.90;;;;;;;;;;5025257;28;20241;-69
2021/03/04 01:44:32;;;;;;;94.53;31.97;;;;;;;;;;5014860;28;20559;-69
2021/03/04 01:46:58;;;;;;;97.87;32.67;;;;;;;;;;5023573;28;20525;-69
2021/03/04 01:49:23;;;;;;;99.23;33.60;;;;;;;;;;5017577;28;20323;-69
2021/03/04 01:51:49;;;;;;;92.77;31.33;;;;;;;;;;5030006;28;20185;-69
2021/03/04 01:54:15;;;;;;;99.23;32.50;;;;;;;;;;5027747;28;20452;-69
2021/03/04 01:56:41;;;;;;;98.83;32.47;;;;;;;;;;5018310;28;20193;-69
2021/03/04 01:59:06;;;;;;;105.67;35.00;;;;;;;;;;5026976;28;20220;-69
2021/03/04 02:01:33;;;;;;;101.50;32.83;;;;;;;;;;5017368;28;20277;-69
2021/03/04 02:03:58;;;;;;;96.77;32.67;;;;;;;;;;5027712;28;20715;-70
2021/03/04 02:06:39;;;;;;;101.77;33.33;;;;;;;;;;5020165;28;20237;-69
2021/03/04 02:09:06;;;;;;;110.63;34.50;;;;;;;;;;5027240;28;20276;-69
2021/03/04 02:11:48;;;;;;;104.17;34.37;;;;;;;;;;5018793;28;20280;-69
2021/03/04 02:14:19;;;;;;;111.60;35.30;;;;;;;;;;5026636;28;20718;-69
2021/03/04 02:16:55;;;;;;;120.53;35.63;;;;;;;;;;5017831;28;20197;-69
2021/03/04 02:19:55;;;;;;;117.40;34.60;;;;;;;;;;5027520;28;22074;-69
2021/03/04 02:22:38;;;;;;;107.80;35.10;;;;;;;;;;5017540;28;20562;-68
2021/03/04 02:25:06;;;;;;;117.47;34.47;;;;;;;;;;5025232;28;20193;-68
2021/03/04 02:27:33;;;;;;;117.47;36.93;;;;;;;;;;5019014;28;20194;-68
2021/03/04 02:30:09;;;;;;;119.37;35.93;;;;;;;;;;5026544;28;20242;-69
2021/03/04 02:32:38;;;;;;;120.70;36.00;;;;;;;;;;5018347;28;20213;-69
2021/03/04 02:35:15;;;;;;;123.37;36.07;;;;;;;;;;5028279;28;20637;-69
2021/03/04 02:37:45;;;;;;;128.03;34.87;;;;;;;;;;5018572;28;20767;-69
2021/03/04 02:40:13;;;;;;;112.37;34.33;;;;;;;;;;5025834;28;20566;-69
2021/03/04 02:42:40;;;;;;;115.77;34.37;;;;;;;;;;5021722;28;20236;-69
2021/03/04 02:45:08;;;;;;;117.63;34.00;;;;;;;;;;5025859;28;20289;-69
2021/03/04 02:47:35;;;;;;;111.80;35.50;;;;;;;;;;5017902;28;20194;-69
2021/03/04 02:50:01;;;;;;;120.90;36.50;;;;;;;;;;5026959;28;20190;-69
2021/03/04 02:52:28;;;;;;;118.63;34.77;;;;;;;;;;5025925;28;20206;-69
2021/03/04 02:54:54;;;;;;;123.67;35.27;;;;;;;;;;5018712;28;20239;-69
2021/03/04 02:57:20;;;;;;;111.13;33.50;;;;;;;;;;5026391;28;20772;-69
2021/03/04 02:59:48;;;;;;;106.57;32.87;;;;;;;;;;5018437;28;20294;-68
2021/03/04 03:02:15;;;;;;;123.73;34.20;;;;;;;;;;5027521;28;20189;-68
2021/03/04 03:04:42;;;;;;;115.40;31.93;;;;;;;;;;5017030;28;20212;-68
2021/03/04 03:07:09;;;;;;;113.03;31.03;;;;;;;;;;5025927;28;20721;-68
2021/03/04 03:09:37;;;;;;;118.13;34.10;;;;;;;;;;5017380;28;20186;-69
2021/03/04 03:12:03;;;;;;;104.73;30.70;;;;;;;;;;5025745;28;20204;-70
2021/03/04 03:14:30;;;;;;;100.30;28.60;;;;;;;;;;5018604;28;20189;-67
2021/03/04 03:16:58;;;;;;;87.90;29.23;;;;;;;;;;5024387;28;20236;-68
2021/03/04 03:19:23;;;;;;;90.13;27.00;;;;;;;;;;5018874;28;20740;-68
2021/03/04 03:21:49;;;;;;;82.70;27.50;;;;;;;;;;5027570;28;20769;-68
2021/03/04 03:24:14;;;;;;;80.53;25.97;;;;;;;;;;5022131;28;20305;-68
2021/03/04 03:26:39;;;;;;;82.63;26.57;;;;;;;;;;5021974;28;20645;-68
2021/03/04 03:29:05;;;;;;;77.70;25.03;;;;;;;;;;5026081;28;20358;-68
2021/03/04 03:31:32;;;;;;;76.03;24.90;;;;;;;;;;5018162;28;20298;-68
2021/03/04 03:33:58;;;;;;;80.97;25.67;;;;;;;;;;5024420;28;20288;-68
2021/03/04 03:36:24;;;;;;;82.07;25.20;;;;;;;;;;5016890;28;20656;-68
2021/03/04 03:38:50;;;;;;;78.93;24.83;;;;;;;;;;5026816;28;20271;-68
2021/03/04 03:41:18;;;;;;;74.17;25.77;;;;;;;;;;5018366;28;20285;-68
2021/03/04 03:43:45;;;;;;;75.83;25.23;;;;;;;;;;5023726;28;21073;-68
2021/03/04 03:46:12;;;;;;;73.47;24.40;;;;;;;;;;5016265;28;20540;-68
2021/03/04 03:48:39;;;;;;;79.17;26.73;;;;;;;;;;5022844;28;20590;-68
2021/03/04 03:51:04;;;;;;;77.30;26.40;;;;;;;;;;5016505;28;20208;-68
2021/03/04 03:53:31;;;;;;;85.00;26.67;;;;;;;;;;5025017;28;20194;-68
2021/03/04 03:55:57;;;;;;;86.00;27.23;;;;;;;;;;5019499;28;20657;-68
2021/03/04 03:58:25;;;;;;;88.37;28.93;;;;;;;;;;5023470;28;20220;-68
2021/03/04 04:00:55;;;;;;;79.77;27.83;;;;;;;;;;5025865;28;20217;-68
2021/03/04 04:03:21;;;;;;;86.63;28.63;;;;;;;;;;5016939;28;20304;-68
2021/03/04 04:05:48;;;;;;;90.50;28.43;;;;;;;;;;5024454;28;20186;-68
2021/03/04 04:08:13;;;;;;;89.50;28.67;;;;;;;;;;5016056;28;20193;-68
2021/03/04 04:10:39;;;;;;;84.83;26.70;;;;;;;;;;5025441;28;20190;-68
2021/03/04 04:13:04;;;;;;;91.40;28.83;;;;;;;;;;5016332;28;20189;-68
2021/03/04 04:15:30;;;;;;;87.83;27.27;;;;;;;;;;5023690;28;20201;-68
2021/03/04 04:17:58;;;;;;;91.63;28.93;;;;;;;;;;5015577;28;20213;-69
2021/03/04 04:20:24;;;;;;;87.43;27.13;;;;;;;;;;5025896;28;20176;-68
2021/03/04 04:22:52;;;;;;;91.00;27.43;;;;;;;;;;5016647;28;20286;-68
2021/03/04 04:25:20;;;;;;;76.90;24.90;;;;;;;;;;5026359;28;20933;-68
2021/03/04 04:27:45;;;;;;;79.83;25.30;;;;;;;;;;5017408;28;20192;-68
2021/03/04 04:30:11;;;;;;;78.90;24.03;;;;;;;;;;5021292;28;20679;-68
2021/03/04 04:32:36;;;;;;;69.07;22.30;;;;;;;;;;5021217;28;20194;-68
2021/03/04 04:35:02;;;;;;;62.47;22.60;;;;;;;;;;5017090;28;20251;-69
2021/03/04 04:37:28;;;;;;;69.57;22.33;;;;;;;;;;5024279;28;20743;-69
2021/03/04 04:39:53;;;;;;;81.33;25.63;;;;;;;;;;5016081;28;20271;-68
2021/03/04 04:42:18;;;;;;;78.17;24.20;;;;;;;;;;5023283;28;20294;-69
2021/03/04 04:44:44;;;;;;;83.47;25.77;;;;;;;;;;5014061;28;20194;-69
2021/03/04 04:47:09;;;;;;;85.80;26.13;;;;;;;;;;5024951;28;20194;-69
2021/03/04 04:49:35;;;;;;;85.17;26.23;;;;;;;;;;5015704;28;20595;-69
2021/03/04 04:52:00;;;;;;;84.17;25.40;;;;;;;;;;5026382;28;20185;-69
2021/03/04 04:54:25;;;;;;;86.50;24.87;;;;;;;;;;5012966;28;20291;-69
2021/03/04 04:56:51;;;;;;;74.37;25.47;;;;;;;;;;5024487;28;20342;-69
2021/03/04 04:59:16;;;;;;;82.67;23.83;;;;;;;;;;5024155;28;20637;-69
2021/03/04 05:01:41;;;;;;;75.67;23.67;;;;;;;;;;5015958;28;20278;-69
2021/03/04 05:04:07;;;;;;;78.50;23.50;;;;;;;;;;5023929;28;20213;-69
2021/03/04 05:06:32;;;;;;;77.57;22.63;;;;;;;;;;5015022;28;20231;-69
2021/03/04 05:08:57;;;;;;;71.30;22.23;;;;;;;;;;5023070;28;20268;-69
2021/03/04 05:11:23;;;;;;;69.30;22.97;;;;;;;;;;5019037;28;20200;-69
2021/03/04 05:13:48;;;;;;;80.07;24.37;;;;;;;;;;5022254;28;20197;-69
2021/03/04 05:16:14;;;;;;;78.53;24.50;;;;;;;;;;5016148;28;20200;-69
2021/03/04 05:18:39;;;;;;;72.43;21.70;;;;;;;;;;5023495;28;20268;-69
2021/03/04 05:21:06;;;;;;;74.37;22.97;;;;;;;;;;5015964;28;20553;-69
2021/03/04 05:23:32;;;;;;;71.53;21.27;;;;;;;;;;5023576;28;20669;-69
2021/03/04 05:25:58;;;;;;;76.27;22.23;;;;;;;;;;5018509;28;20200;-69
2021/03/04 05:28:23;;;;;;;73.33;21.03;;;;;;;;;;5023647;28;20186;-69
2021/03/04 05:30:49;;;;;;;66.53;21.97;;;;;;;;;;5038076;28;20861;-69
2021/03/04 05:33:14;;;;;;;65.23;21.23;;;;;;;;;;5016260;28;20221;-69
2021/03/04 05:35:40;;;;;;;70.47;21.40;;;;;;;;;;5024176;28;20185;-69
2021/03/04 05:38:05;;;;;;;57.90;18.43;;;;;;;;;;5015229;28;20213;-69
2021/03/04 05:40:30;;;;;;;57.30;17.93;;;;;;;;;;5025764;28;20216;-69
2021/03/04 05:42:57;;;;;;;55.67;18.57;;;;;;;;;;5013717;28;20275;-68
2021/03/04 05:45:23;;;;;;;56.03;16.73;;;;;;;;;;5026028;28;21879;-68
2021/03/04 05:47:49;;;;;;;51.63;18.20;;;;;;;;;;5011752;28;20187;-69
2021/03/04 05:50:17;;;;;;;51.87;17.77;;;;;;;;;;5022294;28;20553;-69
2021/03/04 05:53:09;;;;;;;47.63;16.90;;;;;;;;;;5017025;28;20247;-69
2021/03/04 05:55:35;;;;;;;42.50;16.13;;;;;;;;;;5022547;28;20600;-69
2021/03/04 05:58:01;;;;;;;51.33;15.70;;;;;;;;;;5012569;28;20323;-68
2021/03/04 06:00:27;;;;;;;42.17;15.37;;;;;;;;;;5023622;28;20233;-68
2021/03/04 06:02:53;;;;;;;45.00;15.90;;;;;;;;;;5023006;28;20186;-68
2021/03/04 06:05:18;;;;;;;45.17;16.17;;;;;;;;;;5016007;28;20209;-68
2021/03/04 06:07:45;;;;;;;42.17;16.73;;;;;;;;;;5021623;28;20200;-68
2021/03/04 06:10:13;;;;;;;48.83;16.60;;;;;;;;;;5016492;28;20239;-69
2021/03/04 06:12:39;;;;;;;43.27;15.33;;;;;;;;;;5022139;28;20197;-69
2021/03/04 06:15:09;;;;;;;47.23;15.87;;;;;;;;;;5014983;28;20550;-69
2021/03/04 06:17:35;;;;;;;41.67;15.20;;;;;;;;;;5022484;28;20898;-69
2021/03/04 06:20:05;;;;;;;44.03;16.43;;;;;;;;;;5016344;28;20200;-69
2021/03/04 06:22:35;;;;;;;51.60;16.33;;;;;;;;;;5022740;28;20186;-69
2021/03/04 06:25:06;;;;;;;42.27;14.80;;;;;;;;;;5013470;28;20284;-69
2021/03/04 06:27:38;;;;;;;41.33;15.13;;;;;;;;;;5018536;28;20190;-69
2021/03/04 06:30:10;;;;;;;47.90;15.57;;;;;;;;;;5011371;28;20763;-69
2021/03/04 06:32:37;;;;;;;49.80;14.87;;;;;;;;;;5018501;28;20185;-69
2021/03/04 06:35:14;;;;;;;48.20;16.33;;;;;;;;;;5017793;28;20186;-68
2021/03/04 06:37:44;;;;;;;49.10;16.63;;;;;;;;;;5023197;28;20217;-69
2021/03/04 06:40:30;;;;;;;45.03;16.13;;;;;;;;;;5019554;28;20225;-69
2021/03/04 06:42:56;;;;;;;48.30;16.77;;;;;;;;;;5024785;28;20790;-69
2021/03/04 06:45:25;;;;;;;50.20;16.00;;;;;;;;;;5018467;28;20190;-70
2021/03/04 06:47:51;;;;;;;42.77;16.37;;;;;;;;;;5024415;28;20563;-70
2021/03/04 06:50:22;;;;;;;47.80;15.47;;;;;;;;;;5025421;28;20193;-69
2021/03/04 06:52:47;;;;;;;45.63;15.20;;;;;;;;;;5016740;28;20761;-69
2021/03/04 06:55:14;;;;;;;44.57;15.17;;;;;;;;;;5026878;28;20193;-70
2021/03/04 06:57:40;;;;;;;43.33;14.27;;;;;;;;;;5013466;28;20220;-69
2021/03/04 07:00:27;;;;;;;42.40;14.47;;;;;;;;;;5027249;28;20189;-69
2021/03/04 07:02:57;;;;;;;32.53;13.00;;;;;;;;;;5015768;28;20235;-69
2021/03/04 07:05:26;;;;;;;37.57;13.47;;;;;;;;;;5024194;28;20209;-69
2021/03/04 07:07:53;;;;;;;37.50;12.23;;;;;;;;;;5016846;28;20664;-70
2021/03/04 07:10:21;;;;;;;36.60;12.53;;;;;;;;;;5025688;28;20881;-69
2021/03/04 07:12:47;;;;;;;33.77;12.33;;;;;;;;;;5015128;28;20193;-70
2021/03/04 07:15:14;;;;;;;34.20;12.17;;;;;;;;;;5025547;28;20612;-69
2021/03/04 07:17:42;;;;;;;34.53;13.40;;;;;;;;;;5012826;28;20349;-69
2021/03/04 07:20:12;;;;;;;34.00;12.07;;;;;;;;;;5023561;28;20189;-69
2021/03/04 07:22:38;;;;;;;34.80;12.67;;;;;;;;;;5013915;28;20224;-69
2021/03/04 07:25:04;;;;;;;27.93;10.23;;;;;;;;;;5023520;28;20511;-69
2021/03/04 07:27:30;;;;;;;26.10;10.57;;;;;;;;;;5020779;28;20199;-68
2021/03/04 07:29:55;;;;;;;29.67;10.53;;;;;;;;;;5020716;28;20260;-69
2021/03/04 07:32:22;;;;;;;26.43;10.83;;;;;;;;;;5029355;28;20182;-69
2021/03/04 07:34:48;;;;;;;32.87;10.73;;;;;;;;;;5018840;28;20276;-69
2021/03/04 07:37:17;;;;;;;29.17;9.83;;;;;;;;;;5031427;28;20212;-69
2021/03/04 07:39:42;;;;;;;29.50;10.33;;;;;;;;;;5025308;28;20243;-69
2021/03/04 07:42:19;;;;;;;26.43;9.67;;;;;;;;;;5045287;28;20226;-69
2021/03/04 07:44:44;;;;;;;27.67;9.30;;;;;;;;;;5018066;28;20196;-69
2021/03/04 07:47:10;;;;;;;27.03;10.00;;;;;;;;;;5026951;28;20194;-69
2021/03/04 07:49:45;;;;;;;27.07;10.60;;;;;;;;;;5032891;28;20193;-69
2021/03/04 07:52:24;;;;;;;32.27;11.07;;;;;;;;;;5031562;28;20185;-69
2021/03/04 07:54:52;;;;;;;25.43;10.57;;;;;;;;;;5017409;28;20641;-68
2021/03/04 07:57:24;;;;;;;27.00;10.57;;;;;;;;;;5023157;28;20213;-68
2021/03/04 07:59:56;;;;;;;26.30;9.80;;;;;;;;;;5023255;28;20189;-69
2021/03/04 08:02:36;;;;;;;28.30;11.77;;;;;;;;;;5029731;28;20533;-69
2021/03/04 08:05:15;;;;;;;26.07;9.97;;;;;;;;;;5019914;28;22044;-69
2021/03/04 08:07:48;;;;;;;25.17;9.57;;;;;;;;;;5024260;28;20190;-69
2021/03/04 08:10:14;;;;;;;21.60;9.17;;;;;;;;;;5018951;28;20829;-69
2021/03/04 08:13:02;;;;;;;23.50;9.67;;;;;;;;;;5025173;28;20266;-69
2021/03/04 08:15:33;;;;;;;24.07;8.83;;;;;;;;;;5019026;28;20178;-69
2021/03/04 08:17:59;;;;;;;20.33;9.23;;;;;;;;;;5029586;28;20277;-69
2021/03/04 08:20:25;;;;;;;23.90;9.00;;;;;;;;;;5029909;28;20222;-69
2021/03/04 08:22:56;;;;;;;22.97;9.03;;;;;;;;;;5021177;28;20193;-69
2021/03/04 08:25:23;;;;;;;21.10;8.77;;;;;;;;;;5030676;28;20182;-69
2021/03/04 08:27:50;;;;;;;26.07;9.17;;;;;;;;;;5021212;28;20275;-69
2021/03/04 08:30:32;;;;;;;26.40;9.03;;;;;;;;;;5028371;28;20549;-69
2021/03/04 08:33:00;;;;;;;22.83;9.00;;;;;;;;;;5023765;28;20193;-70
2021/03/04 08:35:26;;;;;;;21.30;8.47;;;;;;;;;;5029732;28;20231;-69
2021/03/04 08:38:04;;;;;;;22.57;9.77;;;;;;;;;;5019400;28;21445;-69
2021/03/04 08:40:38;;;;;;;21.43;9.50;;;;;;;;;;5029203;28;20181;-69
2021/03/04 08:43:13;;;;;;;19.23;8.20;;;;;;;;;;5022409;28;20728;-69
2021/03/04 08:45:39;;;;;;;22.10;9.10;;;;;;;;;;5030741;28;20177;-69
2021/03/04 08:48:08;;;;;;;25.33;9.77;;;;;;;;;;5020091;28;20236;-69
2021/03/04 08:50:42;;;;;;;23.40;9.50;;;;;;;;;;5028238;28;22993;-69
2021/03/04 08:53:16;;;;;;;23.83;9.33;;;;;;;;;;5020713;28;20189;-69
2021/03/04 08:55:51;;;;;;;22.13;9.43;;;;;;;;;;5028933;28;20186;-69
2021/03/04 08:58:18;;;;;;;26.07;10.30;;;;;;;;;;5019893;28;20212;-69
2021/03/04 09:00:58;;;;;;;25.83;10.30;;;;;;;;;;5029043;28;20625;-69
2021/03/04 09:03:26;;;;;;;26.43;9.73;;;;;;;;;;5020747;28;20842;-69
2021/03/04 09:06:22;;;;;;;25.83;10.50;;;;;;;;;;5028170;28;20185;-69
2021/03/04 09:08:50;;;;;;;27.37;10.60;;;;;;;;;;5017535;28;20197;-69
2021/03/04 09:11:29;;;;;;;28.00;11.57;;;;;;;;;;5028345;28;20194;-69
2021/03/04 09:14:01;;;;;;;30.17;11.30;;;;;;;;;;5020531;28;20276;-69
2021/03/04 09:16:27;;;;;;;29.90;11.43;;;;;;;;;;5027384;28;20209;-69
2021/03/04 09:18:52;;;;;;;27.80;11.80;;;;;;;;;;5016609;28;22106;-69
2021/03/04 09:21:18;;;;;;;23.53;10.40;;;;;;;;;;5024968;28;20539;-69
2021/03/04 09:23:44;;;;;;;22.47;9.97;;;;;;;;;;5026941;28;20784;-69
2021/03/04 09:26:10;;;;;;;21.87;9.60;;;;;;;;;;5019943;28;20288;-69
2021/03/04 09:28:39;;;;;;;23.90;9.77;;;;;;;;;;5024774;28;20273;-69
2021/03/04 09:31:13;;;;;;;23.53;9.50;;;;;;;;;;5020499;28;20190;-69
2021/03/04 09:33:40;;;;;;;21.70;9.93;;;;;;;;;;5025439;28;20196;-69
2021/03/04 09:36:07;;;;;;;24.53;10.03;;;;;;;;;;5019742;28;20558;-69
2021/03/04 09:38:34;;;;;;;21.63;9.53;;;;;;;;;;5027726;28;20287;-69
2021/03/04 09:41:16;;;;;;;21.33;9.80;;;;;;;;;;5024343;28;20190;-69
2021/03/04 09:43:48;;;;;;;22.47;9.40;;;;;;;;;;5029539;28;20485;-69
2021/03/04 09:46:30;;;;;;;21.17;9.03;;;;;;;;;;5020679;28;20715;-69
2021/03/04 09:49:15;;;;;;;20.83;9.23;;;;;;;;;;5032950;28;20241;-68
2021/03/04 09:51:43;;;;;;;17.10;7.80;;;;;;;;;;5016956;28;20195;-68
2021/03/04 09:54:09;;;;;;;19.20;7.87;;;;;;;;;;5023430;28;20185;-68
2021/03/04 09:56:35;;;;;;;16.03;7.47;;;;;;;;;;5015290;28;20203;-68
2021/03/04 09:59:01;;;;;;;17.43;6.93;;;;;;;;;;5027053;28;20210;-68
2021/03/04 10:01:34;;;;;;;14.97;6.70;;;;;;;;;;5017124;28;20284;-69
2021/03/04 10:04:01;;;;;;;15.37;6.13;;;;;;;;;;5026672;28;20697;-69
2021/03/04 10:06:26;;;;;;;13.23;6.53;;;;;;;;;;5019656;28;20538;-69
2021/03/04 10:08:53;;;;;;;11.77;5.73;;;;;;;;;;5025828;28;20181;-69
2021/03/04 10:11:24;;;;;;;14.10;6.57;;;;;;;;;;5026541;28;20189;-70
2021/03/04 10:13:50;;;;;;;12.63;6.37;;;;;;;;;;5029736;28;20545;-69
2021/03/04 10:16:16;;;;;;;13.50;6.70;;;;;;;;;;5032477;28;20196;-70
2021/03/04 10:18:43;;;;;;;13.83;6.50;;;;;;;;;;5028240;28;20217;-68
2021/03/04 10:21:10;;;;;;;16.43;6.77;;;;;;;;;;5030860;28;20386;-70
2021/03/04 10:23:35;;;;;;;13.10;6.37;;;;;;;;;;5024043;28;20205;-69
2021/03/04 10:26:01;;;;;;;12.57;6.33;;;;;;;;;;5031490;28;20193;-69
2021/03/04 10:28:26;;;;;;;12.67;6.27;;;;;;;;;;5022367;28;20208;-69
2021/03/04 10:30:52;;;;;;;11.43;6.60;;;;;;;;;;5031699;28;20415;-69
2021/03/04 10:33:17;;;;;;;11.90;5.77;;;;;;;;;;5022727;28;20208;-69
2021/03/04 10:35:42;;;;;;;11.20;6.13;;;;;;;;;;5039251;28;20182;-68
2021/03/04 10:38:08;;;;;;;10.73;6.37;;;;;;;;;;5025511;28;20217;-68
2021/03/04 10:40:33;;;;;;;11.43;6.17;;;;;;;;;;5030621;28;20192;-70
2021/03/04 10:42:58;;;;;;;9.50;5.27;;;;;;;;;;5032856;28;20241;-69
2021/03/04 10:45:24;;;;;;;10.43;6.13;;;;;;;;;;5027213;28;20193;-69
2021/03/04 10:47:49;;;;;;;9.30;5.10;;;;;;;;;;5030724;28;20190;-69
2021/03/04 10:50:18;;;;;;;10.67;6.33;;;;;;;;;;5023470;28;20200;-69
2021/03/04 10:52:44;;;;;;;11.87;6.30;;;;;;;;;;5031504;28;20190;-69
2021/03/04 10:55:11;;;;;;;9.90;5.93;;;;;;;;;;5022805;28;20197;-69
2021/03/04 10:57:37;;;;;;;10.63;6.00;;;;;;;;;;5032864;28;20981;-70
2021/03/04 11:00:08;;;;;;;11.83;6.03;;;;;;;;;;5023488;28;20193;-68
2021/03/04 11:02:33;;;;;;;10.20;5.87;;;;;;;;;;5030411;28;20267;-69
2021/03/04 11:04:58;;;;;;;9.50;5.70;;;;;;;;;;5023039;28;20229;-69
2021/03/04 11:07:24;;;;;;;10.83;6.20;;;;;;;;;;5031576;28;20251;-69
2021/03/04 11:09:52;;;;;;;9.33;5.40;;;;;;;;;;5023183;28;20193;-69
2021/03/04 11:12:19;;;;;;;9.83;5.90;;;;;;;;;;5030658;28;20649;-69
2021/03/04 11:14:44;;;;;;;9.17;5.50;;;;;;;;;;5020902;28;20196;-69
2021/03/04 11:17:10;;;;;;;10.73;5.80;;;;;;;;;;5030490;28;20210;-69
2021/03/04 11:19:35;;;;;;;9.87;5.57;;;;;;;;;;5039243;28;20186;-69
2021/03/04 11:22:00;;;;;;;11.33;5.20;;;;;;;;;;5023641;28;20648;-69
2021/03/04 11:24:26;;;;;;;10.93;5.90;;;;;;;;;;5028629;28;20622;-70
2021/03/04 11:26:52;;;;;;;9.87;5.60;;;;;;;;;;5017347;28;20324;-69
2021/03/04 11:29:17;;;;;;;9.20;5.07;;;;;;;;;;5032290;28;20186;-69
2021/03/04 11:31:42;;;;;;;9.63;5.30;;;;;;;;;;5021531;28;20197;-69
2021/03/04 11:34:08;;;;;;;8.90;5.47;;;;;;;;;;5028716;28;20186;-69
2021/03/04 11:36:34;;;;;;;12.57;6.00;;;;;;;;;;5019231;28;20919;-69
2021/03/04 11:39:00;;;;;;;8.53;5.37;;;;;;;;;;5030514;28;20329;-69
2021/03/04 11:41:27;;;;;;;12.40;6.13;;;;;;;;;;5016945;28;20316;-69
2021/03/04 11:43:52;;;;;;;11.63;5.50;;;;;;;;;;5026388;28;20259;-69
2021/03/04 11:46:18;;;;;;;11.17;5.90;;;;;;;;;;5016538;28;20197;-69
2021/03/04 11:48:45;;;;;;;12.63;6.57;;;;;;;;;;5027042;28;20563;-69
2021/03/04 11:51:11;;;;;;;13.07;6.03;;;;;;;;;;5026361;28;20197;-69
2021/03/04 11:53:37;;;;;;;12.13;6.03;;;;;;;;;;5018658;28;20186;-69
2021/03/04 11:56:02;;;;;;;8.73;5.67;;;;;;;;;;5028280;28;20680;-68
2021/03/04 11:58:27;;;;;;;13.77;6.10;;;;;;;;;;5020733;28;20225;-69
2021/03/04 12:00:54;;;;;;;11.27;5.93;;;;;;;;;;5026812;28;20205;-69
2021/03/04 12:03:19;;;;;;;12.93;6.20;;;;;;;;;;5022481;28;20201;-69
2021/03/04 12:05:45;;;;;;;11.53;6.20;;;;;;;;;;5029783;28;20206;-69
2021/03/04 12:08:10;;;;;;;10.23;6.30;;;;;;;;;;5017310;28;20213;-69
2021/03/04 12:10:36;;;;;;;9.97;5.73;;;;;;;;;;5028974;28;20193;-69
2021/03/04 12:13:01;;;;;;;13.67;5.93;;;;;;;;;;5022362;28;20192;-69
2021/03/04 12:15:26;;;;;;;11.80;6.03;;;;;;;;;;5029582;28;20186;-69
2021/03/04 12:17:52;;;;;;;10.67;6.40;;;;;;;;;;5028031;28;20197;-69
2021/03/04 12:20:17;;;;;;;11.93;6.17;;;;;;;;;;5020211;28;20220;-69
2021/03/04 12:22:42;;;;;;;11.50;6.23;;;;;;;;;;5026465;28;20521;-69
2021/03/04 12:25:08;;;;;;;12.80;6.17;;;;;;;;;;5022256;28;20232;-69
2021/03/04 12:27:34;;;;;;;11.30;6.43;;;;;;;;;;5031363;28;20181;-69
2021/03/04 12:29:59;;;;;;;10.53;5.90;;;;;;;;;;5021028;28;20260;-69
2021/03/04 12:32:25;;;;;;;12.87;6.13;;;;;;;;;;5030366;28;20553;-69
2021/03/04 12:34:51;;;;;;;12.17;5.93;;;;;;;;;;5020790;28;20185;-69
2021/03/04 12:37:17;;;;;;;11.10;5.90;;;;;;;;;;5026414;28;20194;-69
2021/03/04 12:39:42;;;;;;;14.80;5.70;;;;;;;;;;5022868;28;20606;-69
2021/03/04 12:42:07;;;;;;;9.10;5.27;;;;;;;;;;5029101;28;20221;-69
2021/03/04 12:44:33;;;;;;;11.07;6.00;;;;;;;;;;5022696;28;20186;-69
2021/03/04 12:46:58;;;;;;;12.80;5.30;;;;;;;;;;5031073;28;20188;-69
2021/03/04 12:49:24;;;;;;;10.10;5.80;;;;;;;;;;5029660;28;20718;-69
2021/03/04 12:51:49;;;;;;;12.93;6.27;;;;;;;;;;5017881;28;20575;-69
2021/03/04 12:54:14;;;;;;;17.77;6.53;;;;;;;;;;5027251;28;20185;-69
2021/03/04 12:56:39;;;;;;;10.57;5.53;;;;;;;;;;5021678;28;20636;-68
2021/03/04 12:59:05;;;;;;;11.87;5.67;;;;;;;;;;5027518;28;20255;-68
2021/03/04 13:01:31;;;;;;;11.77;6.17;;;;;;;;;;5020143;28;20239;-70
2021/03/04 13:03:56;;;;;;;16.40;6.70;;;;;;;;;;5026890;28;20206;-68
2021/03/04 13:06:23;;;;;;;9.83;5.77;;;;;;;;;;5020484;28;20273;-68
2021/03/04 13:08:49;;;;;;;11.20;5.93;;;;;;;;;;5027963;28;20194;-68
2021/03/04 13:11:15;;;;;;;10.93;6.00;;;;;;;;;;5021220;28;20205;-68
2021/03/04 13:13:40;;;;;;;9.83;5.70;;;;;;;;;;5031075;28;20276;-68
2021/03/04 13:16:06;;;;;;;17.50;6.50;;;;;;;;;;5027141;28;20188;-68
2021/03/04 13:18:31;;;;;;;10.53;6.07;;;;;;;;;;5029914;28;20525;-68
2021/03/04 13:20:56;;;;;;;12.00;5.67;;;;;;;;;;5028470;28;20189;-68
2021/03/04 13:23:21;;;;;;;12.50;6.70;;;;;;;;;;5020858;28;20196;-68
2021/03/04 13:25:47;;;;;;;14.37;6.43;;;;;;;;;;5025129;28;20668;-68
2021/03/04 13:28:12;;;;;;;12.77;6.60;;;;;;;;;;5022008;28;20221;-68
2021/03/04 13:30:37;;;;;;;11.87;6.33;;;;;;;;;;5031660;28;20390;-68
2021/03/04 13:33:03;;;;;;;10.53;6.17;;;;;;;;;;5021145;28;20592;-68
2021/03/04 13:35:28;;;;;;;10.63;6.13;;;;;;;;;;5028183;28;20189;-68
2021/03/04 13:37:54;;;;;;;14.43;6.47;;;;;;;;;;5018619;28;23378;-69
2021/03/04 13:40:21;;;;;;;12.97;5.87;;;;;;;;;;4333336;28;10000841;-68
2021/03/04 13:42:46;;;;;;;16.47;7.20;;;;;;;;;;5015306;28;21843;-69
2021/03/04 13:45:12;;;;;;;13.20;6.67;;;;;;;;;;5025492;28;20241;-69
2021/03/04 13:47:37;;;;;;;14.37;7.43;;;;;;;;;;5027858;28;20706;-69
2021/03/04 13:50:03;;;;;;;12.07;7.10;;;;;;;;;;5023438;28;20803;-71
2021/03/04 13:52:28;;;;;;;15.17;7.17;;;;;;;;;;5028501;28;20284;-70
2021/03/04 13:54:54;;;;;;;15.83;7.50;;;;;;;;;;5022783;28;20272;-70
2021/03/04 13:57:19;;;;;;;11.67;6.77;;;;;;;;;;5030437;28;20249;-70
2021/03/04 13:59:45;;;;;;;14.27;8.30;;;;;;;;;;5020880;28;20204;-70
2021/03/04 14:02:10;;;;;;;16.90;8.20;;;;;;;;;;5030352;28;20219;-69
2021/03/04 14:04:35;;;;;;;12.10;6.80;;;;;;;;;;5018379;28;20210;-70
2021/03/04 14:07:01;;;;;;;14.23;7.10;;;;;;;;;;5027941;28;21552;-70
2021/03/04 14:09:26;;;;;;;16.23;8.17;;;;;;;;;;5020651;28;20193;-69
2021/03/04 14:11:52;;;;;;;16.33;8.37;;;;;;;;;;5028615;28;20299;-69
2021/03/04 14:14:17;;;;;;;21.60;9.07;;;;;;;;;;5021152;28;20246;-69
2021/03/04 14:16:42;;;;;;;17.83;7.80;;;;;;;;;;5028895;28;20230;-69
2021/03/04 14:19:08;;;;;;;15.23;7.40;;;;;;;;;;5027835;28;20765;-69
2021/03/04 14:21:33;;;;;;;14.87;6.80;;;;;;;;;;5019503;28;20200;-69
2021/03/04 14:23:59;;;;;;;14.23;7.13;;;;;;;;;;5027312;28;20186;-70